sensor_id;sensor_type;location;lat;lon;timestamp;temperature;humidity
25300;DHT22;13241;51.208;4.432;2023-06-22T00:01:20;21.20;99.90
25300;DHT22;13241;51.208;4.432;2023-06-22T00:03:49;21.30;99.90
25300;DHT22;13241;51.208;4.432;2023-06-22T00:06:16;21.30;99.90
25300;DHT22;13241;51.208;4.432;2023-06-22T00:08:43;21.30;99.90
25300;DHT22;13241;51.208;4.432;2023-06-22T00:11:10;21.30;99.90
25300;DHT22;13241;51.208;4.432;2023-06-22T00:13:38;21.30;99.90
25300;DHT22;13241;51.208;4.432;2023-06-22T00:16:05;21.20;99.90
25300;DHT22;13241;51.208;4.432;2023-06-22T00:18:51;21.30;99.90
25300;DHT22;13241;51.208;4.432;2023-06-22T00:21:17;21.20;99.90
25300;DHT22;13241;51.208;4.432;2023-06-22T00:23:47;21.30;99.90
25300;DHT22;13241;51.208;4.432;2023-06-22T00:26:14;21.20;99.90
25300;DHT22;13241;51.208;4.432;2023-06-22T00:28:41;21.20;99.90
25300;DHT22;13241;51.208;4.432;2023-06-22T00:31:08;21.20;99.90
25300;DHT22;13241;51.208;4.432;2023-06-22T00:33:35;21.10;99.90
25300;DHT22;13241;51.208;4.432;2023-06-22T00:36:05;21.00;99.90
25300;DHT22;13241;51.208;4.432;2023-06-22T00:38:34;20.90;99.90
25300;DHT22;13241;51.208;4.432;2023-06-22T00:41:01;20.80;99.90
25300;DHT22;13241;51.208;4.432;2023-06-22T00:43:28;20.80;99.90
25300;DHT22;13241;51.208;4.432;2023-06-22T00:45:56;20.80;99.90
25300;DHT22;13241;51.208;4.432;2023-06-22T00:48:23;20.80;99.90
25300;DHT22;13241;51.208;4.432;2023-06-22T00:50:51;20.80;99.90
25300;DHT22;13241;51.208;4.432;2023-06-22T00:53:20;20.80;99.90
25300;DHT22;13241;51.208;4.432;2023-06-22T00:55:48;20.80;99.90
25300;DHT22;13241;51.208;4.432;2023-06-22T00:58:18;20.70;99.90
25300;DHT22;13241;51.208;4.432;2023-06-22T01:00:48;20.60;99.90
25300;DHT22;13241;51.208;4.432;2023-06-22T01:03:15;20.70;99.90
25300;DHT22;13241;51.208;4.432;2023-06-22T01:05:44;20.60;99.90
25300;DHT22;13241;51.208;4.432;2023-06-22T01:10:54;20.60;99.90
25300;DHT22;13241;51.208;4.432;2023-06-22T01:13:45;20.60;99.90
25300;DHT22;13241;51.208;4.432;2023-06-22T01:16:24;20.60;99.90
25300;DHT22;13241;51.208;4.432;2023-06-22T01:18:55;20.50;99.90
25300;DHT22;13241;51.208;4.432;2023-06-22T01:21:25;20.50;99.90
25300;DHT22;13241;51.208;4.432;2023-06-22T01:29:54;20.50;99.90
25300;DHT22;13241;51.208;4.432;2023-06-22T01:32:32;20.50;99.90
25300;DHT22;13241;51.208;4.432;2023-06-22T01:35:01;20.50;99.90
25300;DHT22;13241;51.208;4.432;2023-06-22T01:37:32;20.50;99.90
25300;DHT22;13241;51.208;4.432;2023-06-22T01:40:02;20.40;99.90
25300;DHT22;13241;51.208;4.432;2023-06-22T01:42:31;20.40;99.90
25300;DHT22;13241;51.208;4.432;2023-06-22T01:44:59;20.40;99.90
25300;DHT22;13241;51.208;4.432;2023-06-22T01:47:27;20.50;99.90
25300;DHT22;13241;51.208;4.432;2023-06-22T01:49:55;20.40;99.90
25300;DHT22;13241;51.208;4.432;2023-06-22T01:52:21;20.40;99.90
25300;DHT22;13241;51.208;4.432;2023-06-22T01:54:48;20.40;99.90
25300;DHT22;13241;51.208;4.432;2023-06-22T01:57:16;20.40;99.90
25300;DHT22;13241;51.208;4.432;2023-06-22T02:02:26;20.20;99.90
25300;DHT22;13241;51.208;4.432;2023-06-22T02:04:59;20.30;99.90
25300;DHT22;13241;51.208;4.432;2023-06-22T02:07:34;20.20;99.90
25300;DHT22;13241;51.208;4.432;2023-06-22T02:10:03;20.20;99.90
25300;DHT22;13241;51.208;4.432;2023-06-22T02:12:34;20.20;99.90
25300;DHT22;13241;51.208;4.432;2023-06-22T02:15:02;20.00;99.90
25300;DHT22;13241;51.208;4.432;2023-06-22T02:17:29;20.10;99.90
25300;DHT22;13241;51.208;4.432;2023-06-22T02:20:02;20.10;99.90
25300;DHT22;13241;51.208;4.432;2023-06-22T02:22:35;20.10;99.90
25300;DHT22;13241;51.208;4.432;2023-06-22T02:25:02;20.10;99.90
25300;DHT22;13241;51.208;4.432;2023-06-22T02:27:29;20.10;99.90
25300;DHT22;13241;51.208;4.432;2023-06-22T02:29:56;20.10;99.90
25300;DHT22;13241;51.208;4.432;2023-06-22T02:32:23;20.00;99.90
25300;DHT22;13241;51.208;4.432;2023-06-22T02:34:50;20.10;99.90
25300;DHT22;13241;51.208;4.432;2023-06-22T02:37:18;20.00;99.90
25300;DHT22;13241;51.208;4.432;2023-06-22T02:39:45;20.00;99.90
25300;DHT22;13241;51.208;4.432;2023-06-22T02:42:11;20.00;99.90
25300;DHT22;13241;51.208;4.432;2023-06-22T02:44:38;20.00;99.90
25300;DHT22;13241;51.208;4.432;2023-06-22T02:47:05;20.20;99.90
25300;DHT22;13241;51.208;4.432;2023-06-22T02:49:32;20.00;99.90
25300;DHT22;13241;51.208;4.432;2023-06-22T02:51:59;20.00;99.90
25300;DHT22;13241;51.208;4.432;2023-06-22T02:54:26;20.00;99.90
25300;DHT22;13241;51.208;4.432;2023-06-22T02:56:54;20.00;99.90
25300;DHT22;13241;51.208;4.432;2023-06-22T02:59:21;19.90;99.90
25300;DHT22;13241;51.208;4.432;2023-06-22T03:01:59;19.90;99.90
25300;DHT22;13241;51.208;4.432;2023-06-22T03:04:29;19.90;99.90
25300;DHT22;13241;51.208;4.432;2023-06-22T03:06:57;19.90;99.90
25300;DHT22;13241;51.208;4.432;2023-06-22T03:09:30;19.90;99.90
25300;DHT22;13241;51.208;4.432;2023-06-22T03:11:57;19.90;99.90
25300;DHT22;13241;51.208;4.432;2023-06-22T03:14:29;19.60;99.90
25300;DHT22;13241;51.208;4.432;2023-06-22T03:16:56;19.80;99.90
25300;DHT22;13241;51.208;4.432;2023-06-22T03:19:29;19.80;99.90
25300;DHT22;13241;51.208;4.432;2023-06-22T03:22:00;19.80;99.90
25300;DHT22;13241;51.208;4.432;2023-06-22T03:24:27;19.70;99.90
25300;DHT22;13241;51.208;4.432;2023-06-22T03:26:56;19.70;99.90
25300;DHT22;13241;51.208;4.432;2023-06-22T03:29:23;19.60;99.90
25300;DHT22;13241;51.208;4.432;2023-06-22T03:31:51;19.70;99.90
25300;DHT22;13241;51.208;4.432;2023-06-22T03:34:19;19.70;99.90
25300;DHT22;13241;51.208;4.432;2023-06-22T03:36:46;19.70;99.90
25300;DHT22;13241;51.208;4.432;2023-06-22T03:39:13;19.70;99.90
25300;DHT22;13241;51.208;4.432;2023-06-22T03:41:40;19.70;99.90
25300;DHT22;13241;51.208;4.432;2023-06-22T03:44:07;19.70;99.90
25300;DHT22;13241;51.208;4.432;2023-06-22T03:46:38;19.70;99.90
25300;DHT22;13241;51.208;4.432;2023-06-22T03:49:06;19.70;99.90
25300;DHT22;13241;51.208;4.432;2023-06-22T03:51:32;19.60;99.90
25300;DHT22;13241;51.208;4.432;2023-06-22T03:53:59;19.70;99.90
25300;DHT22;13241;51.208;4.432;2023-06-22T03:56:26;19.70;99.90
25300;DHT22;13241;51.208;4.432;2023-06-22T03:58:53;19.70;99.90
25300;DHT22;13241;51.208;4.432;2023-06-22T04:01:20;19.70;99.90
25300;DHT22;13241;51.208;4.432;2023-06-22T04:03:47;19.70;99.90
25300;DHT22;13241;51.208;4.432;2023-06-22T04:06:16;19.80;99.90
25300;DHT22;13241;51.208;4.432;2023-06-22T04:08:45;19.70;99.90
25300;DHT22;13241;51.208;4.432;2023-06-22T04:11:14;19.70;99.90
25300;DHT22;13241;51.208;4.432;2023-06-22T04:13:41;19.70;99.90
25300;DHT22;13241;51.208;4.432;2023-06-22T04:16:08;19.80;99.90
25300;DHT22;13241;51.208;4.432;2023-06-22T04:18:35;19.90;99.90
25300;DHT22;13241;51.208;4.432;2023-06-22T04:21:02;19.90;99.90
25300;DHT22;13241;51.208;4.432;2023-06-22T04:23:29;19.70;99.90
25300;DHT22;13241;51.208;4.432;2023-06-22T04:25:56;19.70;99.90
25300;DHT22;13241;51.208;4.432;2023-06-22T04:28:23;19.70;99.90
25300;DHT22;13241;51.208;4.432;2023-06-22T04:30:53;19.70;99.90
25300;DHT22;13241;51.208;4.432;2023-06-22T04:33:24;19.80;99.90
25300;DHT22;13241;51.208;4.432;2023-06-22T04:35:51;19.80;99.90
25300;DHT22;13241;51.208;4.432;2023-06-22T04:38:18;19.80;99.90
25300;DHT22;13241;51.208;4.432;2023-06-22T04:40:45;19.90;99.90
25300;DHT22;13241;51.208;4.432;2023-06-22T04:43:12;19.90;99.90
25300;DHT22;13241;51.208;4.432;2023-06-22T04:45:39;19.90;99.90
25300;DHT22;13241;51.208;4.432;2023-06-22T04:48:06;20.00;99.90
25300;DHT22;13241;51.208;4.432;2023-06-22T04:50:33;20.00;99.90
25300;DHT22;13241;51.208;4.432;2023-06-22T04:52:59;20.00;99.90
25300;DHT22;13241;51.208;4.432;2023-06-22T04:55:26;20.00;99.90
25300;DHT22;13241;51.208;4.432;2023-06-22T04:57:53;20.10;99.90
25300;DHT22;13241;51.208;4.432;2023-06-22T05:00:20;20.20;99.90
25300;DHT22;13241;51.208;4.432;2023-06-22T05:02:50;20.10;99.90
25300;DHT22;13241;51.208;4.432;2023-06-22T05:05:17;20.30;99.90
25300;DHT22;13241;51.208;4.432;2023-06-22T05:07:45;20.40;99.90
25300;DHT22;13241;51.208;4.432;2023-06-22T05:10:14;20.60;99.90
25300;DHT22;13241;51.208;4.432;2023-06-22T05:12:42;20.70;99.90
25300;DHT22;13241;51.208;4.432;2023-06-22T05:15:09;20.70;99.90
25300;DHT22;13241;51.208;4.432;2023-06-22T05:17:37;20.80;99.90
25300;DHT22;13241;51.208;4.432;2023-06-22T05:20:11;20.80;99.90
25300;DHT22;13241;51.208;4.432;2023-06-22T05:22:39;21.10;99.90
25300;DHT22;13241;51.208;4.432;2023-06-22T05:25:08;21.10;99.90
25300;DHT22;13241;51.208;4.432;2023-06-22T05:27:36;21.40;99.90
25300;DHT22;13241;51.208;4.432;2023-06-22T05:30:07;21.50;99.90
25300;DHT22;13241;51.208;4.432;2023-06-22T05:32:36;21.60;99.90
25300;DHT22;13241;51.208;4.432;2023-06-22T05:35:04;21.70;99.90
25300;DHT22;13241;51.208;4.432;2023-06-22T05:37:31;21.80;99.90
25300;DHT22;13241;51.208;4.432;2023-06-22T05:39:57;21.90;99.90
25300;DHT22;13241;51.208;4.432;2023-06-22T05:42:24;22.00;99.90
25300;DHT22;13241;51.208;4.432;2023-06-22T05:44:53;22.00;99.90
25300;DHT22;13241;51.208;4.432;2023-06-22T05:47:20;22.10;99.90
25300;DHT22;13241;51.208;4.432;2023-06-22T05:49:47;22.20;99.90
25300;DHT22;13241;51.208;4.432;2023-06-22T05:52:14;22.30;99.90
25300;DHT22;13241;51.208;4.432;2023-06-22T05:54:41;22.50;99.90
25300;DHT22;13241;51.208;4.432;2023-06-22T05:57:08;22.50;99.90
25300;DHT22;13241;51.208;4.432;2023-06-22T05:59:35;22.60;99.90
25300;DHT22;13241;51.208;4.432;2023-06-22T06:02:02;22.80;99.90
25300;DHT22;13241;51.208;4.432;2023-06-22T06:04:29;22.80;99.90
25300;DHT22;13241;51.208;4.432;2023-06-22T06:06:56;22.90;99.90
25300;DHT22;13241;51.208;4.432;2023-06-22T06:09:24;22.90;99.90
25300;DHT22;13241;51.208;4.432;2023-06-22T06:11:50;23.00;99.90
25300;DHT22;13241;51.208;4.432;2023-06-22T06:14:17;23.10;99.90
25300;DHT22;13241;51.208;4.432;2023-06-22T06:16:44;23.20;99.90
25300;DHT22;13241;51.208;4.432;2023-06-22T06:19:11;23.30;99.90
25300;DHT22;13241;51.208;4.432;2023-06-22T06:21:38;23.20;99.90
25300;DHT22;13241;51.208;4.432;2023-06-22T06:24:05;23.20;99.90
25300;DHT22;13241;51.208;4.432;2023-06-22T06:26:32;23.20;99.90
25300;DHT22;13241;51.208;4.432;2023-06-22T06:29:01;23.10;99.90
25300;DHT22;13241;51.208;4.432;2023-06-22T06:31:29;23.20;99.90
25300;DHT22;13241;51.208;4.432;2023-06-22T06:33:55;23.20;99.90
25300;DHT22;13241;51.208;4.432;2023-06-22T06:36:22;23.10;99.90
25300;DHT22;13241;51.208;4.432;2023-06-22T06:38:50;23.10;99.90
25300;DHT22;13241;51.208;4.432;2023-06-22T06:41:17;22.90;99.90
25300;DHT22;13241;51.208;4.432;2023-06-22T06:43:44;22.90;99.90
25300;DHT22;13241;51.208;4.432;2023-06-22T06:46:11;22.90;99.90
25300;DHT22;13241;51.208;4.432;2023-06-22T06:48:38;22.90;99.90
25300;DHT22;13241;51.208;4.432;2023-06-22T06:51:06;22.80;99.90
25300;DHT22;13241;51.208;4.432;2023-06-22T06:53:37;23.10;99.90
25300;DHT22;13241;51.208;4.432;2023-06-22T06:56:04;23.20;99.90
25300;DHT22;13241;51.208;4.432;2023-06-22T06:58:32;23.20;99.90
25300;DHT22;13241;51.208;4.432;2023-06-22T07:00:59;23.20;99.90
25300;DHT22;13241;51.208;4.432;2023-06-22T07:03:26;23.10;99.90
25300;DHT22;13241;51.208;4.432;2023-06-22T07:05:53;23.20;99.90
25300;DHT22;13241;51.208;4.432;2023-06-22T07:08:19;23.20;99.90
25300;DHT22;13241;51.208;4.432;2023-06-22T07:10:46;23.20;99.90
25300;DHT22;13241;51.208;4.432;2023-06-22T07:13:13;23.20;99.90
25300;DHT22;13241;51.208;4.432;2023-06-22T07:15:40;23.10;99.90
25300;DHT22;13241;51.208;4.432;2023-06-22T07:18:07;23.10;99.90
25300;DHT22;13241;51.208;4.432;2023-06-22T07:20:34;23.10;99.90
25300;DHT22;13241;51.208;4.432;2023-06-22T07:23:01;23.10;99.90
25300;DHT22;13241;51.208;4.432;2023-06-22T07:25:28;23.10;99.90
25300;DHT22;13241;51.208;4.432;2023-06-22T07:30:26;23.20;99.90
25300;DHT22;13241;51.208;4.432;2023-06-22T07:32:54;23.20;99.90
25300;DHT22;13241;51.208;4.432;2023-06-22T07:35:21;23.20;99.90
25300;DHT22;13241;51.208;4.432;2023-06-22T07:37:48;23.10;99.90
25300;DHT22;13241;51.208;4.432;2023-06-22T07:40:15;23.30;99.90
25300;DHT22;13241;51.208;4.432;2023-06-22T07:42:42;23.40;99.90
25300;DHT22;13241;51.208;4.432;2023-06-22T07:45:09;23.40;99.90
25300;DHT22;13241;51.208;4.432;2023-06-22T07:47:36;23.50;99.90
25300;DHT22;13241;51.208;4.432;2023-06-22T07:50:03;23.60;99.90
25300;DHT22;13241;51.208;4.432;2023-06-22T07:52:31;23.60;99.90
25300;DHT22;13241;51.208;4.432;2023-06-22T07:54:58;23.80;99.90
25300;DHT22;13241;51.208;4.432;2023-06-22T07:57:25;23.90;99.90
25300;DHT22;13241;51.208;4.432;2023-06-22T08:00:00;23.90;99.90
25300;DHT22;13241;51.208;4.432;2023-06-22T08:02:39;23.70;99.90
25300;DHT22;13241;51.208;4.432;2023-06-22T08:05:07;23.60;99.90
25300;DHT22;13241;51.208;4.432;2023-06-22T08:07:47;23.50;99.90
25300;DHT22;13241;51.208;4.432;2023-06-22T08:10:15;23.40;99.90
25300;DHT22;13241;51.208;4.432;2023-06-22T08:12:42;23.30;99.90
25300;DHT22;13241;51.208;4.432;2023-06-22T08:15:09;23.20;99.90
25300;DHT22;13241;51.208;4.432;2023-06-22T08:17:40;23.20;99.90
25300;DHT22;13241;51.208;4.432;2023-06-22T08:20:08;23.20;99.90
25300;DHT22;13241;51.208;4.432;2023-06-22T08:22:42;23.20;99.90
25300;DHT22;13241;51.208;4.432;2023-06-22T08:25:11;23.20;99.90
25300;DHT22;13241;51.208;4.432;2023-06-22T08:27:38;23.20;99.90
25300;DHT22;13241;51.208;4.432;2023-06-22T08:30:06;23.30;99.90
25300;DHT22;13241;51.208;4.432;2023-06-22T08:32:33;23.30;99.90
25300;DHT22;13241;51.208;4.432;2023-06-22T08:35:00;23.40;99.90
25300;DHT22;13241;51.208;4.432;2023-06-22T08:37:28;23.40;99.90
25300;DHT22;13241;51.208;4.432;2023-06-22T08:40:05;23.50;99.90
25300;DHT22;13241;51.208;4.432;2023-06-22T08:42:34;23.50;99.90
25300;DHT22;13241;51.208;4.432;2023-06-22T08:45:01;23.60;99.90
25300;DHT22;13241;51.208;4.432;2023-06-22T08:47:28;23.70;99.90
25300;DHT22;13241;51.208;4.432;2023-06-22T08:49:55;23.70;99.90
25300;DHT22;13241;51.208;4.432;2023-06-22T08:52:23;23.80;99.90
25300;DHT22;13241;51.208;4.432;2023-06-22T08:54:51;23.80;99.90
25300;DHT22;13241;51.208;4.432;2023-06-22T08:57:18;23.70;99.90
25300;DHT22;13241;51.208;4.432;2023-06-22T08:59:45;23.80;99.90
25300;DHT22;13241;51.208;4.432;2023-06-22T09:02:12;23.80;99.90
25300;DHT22;13241;51.208;4.432;2023-06-22T09:04:39;23.80;99.90
25300;DHT22;13241;51.208;4.432;2023-06-22T09:07:06;23.80;99.90
25300;DHT22;13241;51.208;4.432;2023-06-22T09:09:33;23.80;99.90
25300;DHT22;13241;51.208;4.432;2023-06-22T09:12:00;23.80;99.90
25300;DHT22;13241;51.208;4.432;2023-06-22T09:14:27;23.80;99.90
25300;DHT22;13241;51.208;4.432;2023-06-22T09:16:54;23.70;99.90
25300;DHT22;13241;51.208;4.432;2023-06-22T09:19:21;23.70;99.90
25300;DHT22;13241;51.208;4.432;2023-06-22T09:21:48;23.60;99.90
25300;DHT22;13241;51.208;4.432;2023-06-22T09:24:18;23.50;99.90
25300;DHT22;13241;51.208;4.432;2023-06-22T09:26:45;23.40;99.90
25300;DHT22;13241;51.208;4.432;2023-06-22T09:29:12;23.30;99.90
25300;DHT22;13241;51.208;4.432;2023-06-22T09:31:39;23.30;99.90
25300;DHT22;13241;51.208;4.432;2023-06-22T09:34:06;23.30;99.90
25300;DHT22;13241;51.208;4.432;2023-06-22T09:36:33;23.20;99.90
25300;DHT22;13241;51.208;4.432;2023-06-22T09:39:00;23.20;99.90
25300;DHT22;13241;51.208;4.432;2023-06-22T09:41:32;23.10;99.90
25300;DHT22;13241;51.208;4.432;2023-06-22T09:43:59;23.10;99.90
25300;DHT22;13241;51.208;4.432;2023-06-22T09:46:26;23.10;99.90
25300;DHT22;13241;51.208;4.432;2023-06-22T09:48:53;23.10;99.90
25300;DHT22;13241;51.208;4.432;2023-06-22T09:51:20;23.20;99.90
25300;DHT22;13241;51.208;4.432;2023-06-22T09:53:48;23.20;99.90
25300;DHT22;13241;51.208;4.432;2023-06-22T09:56:15;23.20;99.90
25300;DHT22;13241;51.208;4.432;2023-06-22T09:58:43;23.20;99.90
25300;DHT22;13241;51.208;4.432;2023-06-22T10:01:10;23.20;99.90
25300;DHT22;13241;51.208;4.432;2023-06-22T10:03:37;23.20;99.90
25300;DHT22;13241;51.208;4.432;2023-06-22T10:06:05;23.10;99.90
25300;DHT22;13241;51.208;4.432;2023-06-22T10:08:32;23.10;99.90
25300;DHT22;13241;51.208;4.432;2023-06-22T10:10:59;23.10;99.90
25300;DHT22;13241;51.208;4.432;2023-06-22T10:13:27;23.00;99.90
25300;DHT22;13241;51.208;4.432;2023-06-22T10:15:54;23.00;99.90
25300;DHT22;13241;51.208;4.432;2023-06-22T10:18:21;23.00;99.90
25300;DHT22;13241;51.208;4.432;2023-06-22T10:20:49;22.80;99.90
25300;DHT22;13241;51.208;4.432;2023-06-22T10:23:20;22.80;99.90
25300;DHT22;13241;51.208;4.432;2023-06-22T10:25:47;22.80;99.90
25300;DHT22;13241;51.208;4.432;2023-06-22T10:28:15;22.70;99.90
25300;DHT22;13241;51.208;4.432;2023-06-22T10:30:42;22.70;99.90
25300;DHT22;13241;51.208;4.432;2023-06-22T10:33:11;22.60;99.90
25300;DHT22;13241;51.208;4.432;2023-06-22T10:35:38;22.60;99.90
25300;DHT22;13241;51.208;4.432;2023-06-22T10:38:05;22.50;99.90
25300;DHT22;13241;51.208;4.432;2023-06-22T10:40:32;22.50;99.90
25300;DHT22;13241;51.208;4.432;2023-06-22T10:42:59;22.50;99.90
25300;DHT22;13241;51.208;4.432;2023-06-22T10:45:26;22.40;99.90
25300;DHT22;13241;51.208;4.432;2023-06-22T10:47:55;22.40;99.90
25300;DHT22;13241;51.208;4.432;2023-06-22T10:50:22;22.40;99.90
25300;DHT22;13241;51.208;4.432;2023-06-22T10:52:51;22.50;99.90
25300;DHT22;13241;51.208;4.432;2023-06-22T10:55:17;22.50;99.90
25300;DHT22;13241;51.208;4.432;2023-06-22T10:57:44;22.40;99.90
25300;DHT22;13241;51.208;4.432;2023-06-22T11:00:14;22.30;99.90
25300;DHT22;13241;51.208;4.432;2023-06-22T11:02:42;22.30;99.90
25300;DHT22;13241;51.208;4.432;2023-06-22T11:05:09;22.30;99.90
25300;DHT22;13241;51.208;4.432;2023-06-22T11:07:37;22.20;99.90
25300;DHT22;13241;51.208;4.432;2023-06-22T11:10:09;22.20;99.90
25300;DHT22;13241;51.208;4.432;2023-06-22T11:12:36;22.30;99.90
25300;DHT22;13241;51.208;4.432;2023-06-22T11:15:04;22.20;99.90
25300;DHT22;13241;51.208;4.432;2023-06-22T11:17:31;22.20;99.90
25300;DHT22;13241;51.208;4.432;2023-06-22T11:19:58;22.20;99.90
25300;DHT22;13241;51.208;4.432;2023-06-22T11:22:26;22.00;99.90
25300;DHT22;13241;51.208;4.432;2023-06-22T11:24:53;22.10;99.90
25300;DHT22;13241;51.208;4.432;2023-06-22T11:27:20;22.00;99.90
25300;DHT22;13241;51.208;4.432;2023-06-22T11:29:47;22.10;99.90
25300;DHT22;13241;51.208;4.432;2023-06-22T11:32:14;22.10;99.90
25300;DHT22;13241;51.208;4.432;2023-06-22T11:34:41;22.20;99.90
25300;DHT22;13241;51.208;4.432;2023-06-22T11:37:08;22.20;99.90
25300;DHT22;13241;51.208;4.432;2023-06-22T11:39:35;22.20;99.90
25300;DHT22;13241;51.208;4.432;2023-06-22T11:42:08;22.10;99.90
25300;DHT22;13241;51.208;4.432;2023-06-22T11:44:35;22.10;99.90
25300;DHT22;13241;51.208;4.432;2023-06-22T11:47:03;21.90;99.90
25300;DHT22;13241;51.208;4.432;2023-06-22T11:49:31;21.80;99.90
25300;DHT22;13241;51.208;4.432;2023-06-22T11:51:58;21.80;99.90
25300;DHT22;13241;51.208;4.432;2023-06-22T11:54:25;21.80;99.90
25300;DHT22;13241;51.208;4.432;2023-06-22T11:56:52;21.90;99.90
25300;DHT22;13241;51.208;4.432;2023-06-22T11:59:19;21.80;99.90
25300;DHT22;13241;51.208;4.432;2023-06-22T12:01:49;21.90;99.90
25300;DHT22;13241;51.208;4.432;2023-06-22T12:04:17;21.80;99.90
25300;DHT22;13241;51.208;4.432;2023-06-22T12:06:44;22.00;99.90
25300;DHT22;13241;51.208;4.432;2023-06-22T12:09:12;21.90;99.90
25300;DHT22;13241;51.208;4.432;2023-06-22T12:11:40;21.80;99.90
25300;DHT22;13241;51.208;4.432;2023-06-22T12:14:07;21.80;99.90
25300;DHT22;13241;51.208;4.432;2023-06-22T12:16:34;21.50;99.90
25300;DHT22;13241;51.208;4.432;2023-06-22T12:19:01;21.40;99.90
25300;DHT22;13241;51.208;4.432;2023-06-22T12:21:28;21.30;99.90
25300;DHT22;13241;51.208;4.432;2023-06-22T12:23:55;21.20;99.90
25300;DHT22;13241;51.208;4.432;2023-06-22T12:26:22;21.10;99.90
25300;DHT22;13241;51.208;4.432;2023-06-22T12:28:49;20.90;99.90
25300;DHT22;13241;51.208;4.432;2023-06-22T12:31:17;20.70;99.90
25300;DHT22;13241;51.208;4.432;2023-06-22T12:33:44;20.80;99.90
25300;DHT22;13241;51.208;4.432;2023-06-22T12:36:11;20.70;99.90
25300;DHT22;13241;51.208;4.432;2023-06-22T12:38:38;20.70;99.90
25300;DHT22;13241;51.208;4.432;2023-06-22T12:41:05;20.70;99.90
25300;DHT22;13241;51.208;4.432;2023-06-22T12:43:32;20.60;99.90
25300;DHT22;13241;51.208;4.432;2023-06-22T12:45:59;20.60;99.90
25300;DHT22;13241;51.208;4.432;2023-06-22T12:48:27;20.60;99.90
25300;DHT22;13241;51.208;4.432;2023-06-22T12:50:54;20.60;99.90
25300;DHT22;13241;51.208;4.432;2023-06-22T12:53:21;20.60;99.90
25300;DHT22;13241;51.208;4.432;2023-06-22T12:55:50;20.60;99.90
25300;DHT22;13241;51.208;4.432;2023-06-22T12:58:17;20.50;99.90
25300;DHT22;13241;51.208;4.432;2023-06-22T13:00:44;20.60;99.90
25300;DHT22;13241;51.208;4.432;2023-06-22T13:03:10;20.60;99.90
25300;DHT22;13241;51.208;4.432;2023-06-22T13:05:38;20.70;99.90
25300;DHT22;13241;51.208;4.432;2023-06-22T13:08:05;20.60;99.90
25300;DHT22;13241;51.208;4.432;2023-06-22T13:10:32;20.50;99.90
25300;DHT22;13241;51.208;4.432;2023-06-22T13:13:00;20.40;99.90
25300;DHT22;13241;51.208;4.432;2023-06-22T13:15:28;20.30;99.90
25300;DHT22;13241;51.208;4.432;2023-06-22T13:17:56;20.30;99.90
25300;DHT22;13241;51.208;4.432;2023-06-22T13:20:24;20.20;99.90
25300;DHT22;13241;51.208;4.432;2023-06-22T13:22:51;20.20;99.90
25300;DHT22;13241;51.208;4.432;2023-06-22T13:25:18;20.20;99.90
25300;DHT22;13241;51.208;4.432;2023-06-22T13:27:47;20.00;99.90
25300;DHT22;13241;51.208;4.432;2023-06-22T13:30:14;20.00;99.90
25300;DHT22;13241;51.208;4.432;2023-06-22T13:32:41;19.80;99.90
25300;DHT22;13241;51.208;4.432;2023-06-22T13:35:10;19.70;99.90
25300;DHT22;13241;51.208;4.432;2023-06-22T13:37:37;19.70;99.90
25300;DHT22;13241;51.208;4.432;2023-06-22T13:40:05;19.70;99.90
25300;DHT22;13241;51.208;4.432;2023-06-22T13:42:33;19.60;99.90
25300;DHT22;13241;51.208;4.432;2023-06-22T13:45:00;19.70;99.90
25300;DHT22;13241;51.208;4.432;2023-06-22T13:47:29;19.70;99.90
25300;DHT22;13241;51.208;4.432;2023-06-22T13:49:57;19.70;99.90
25300;DHT22;13241;51.208;4.432;2023-06-22T13:52:24;19.80;99.90
25300;DHT22;13241;51.208;4.432;2023-06-22T13:54:51;19.60;99.90
25300;DHT22;13241;51.208;4.432;2023-06-22T13:57:18;19.60;99.90
25300;DHT22;13241;51.208;4.432;2023-06-22T13:59:45;19.60;99.90
25300;DHT22;13241;51.208;4.432;2023-06-22T14:02:12;19.70;99.90
25300;DHT22;13241;51.208;4.432;2023-06-22T14:04:39;19.60;99.90
25300;DHT22;13241;51.208;4.432;2023-06-22T14:07:06;19.40;99.90
25300;DHT22;13241;51.208;4.432;2023-06-22T14:09:33;19.70;99.90
25300;DHT22;13241;51.208;4.432;2023-06-22T14:12:04;19.80;99.90
25300;DHT22;13241;51.208;4.432;2023-06-22T14:14:32;19.60;99.90
25300;DHT22;13241;51.208;4.432;2023-06-22T14:17:00;19.60;99.90
25300;DHT22;13241;51.208;4.432;2023-06-22T14:19:26;19.60;99.90
25300;DHT22;13241;51.208;4.432;2023-06-22T14:21:53;19.50;99.90
25300;DHT22;13241;51.208;4.432;2023-06-22T14:24:20;19.70;99.90
25300;DHT22;13241;51.208;4.432;2023-06-22T14:26:51;19.60;99.90
25300;DHT22;13241;51.208;4.432;2023-06-22T14:29:17;19.70;99.90
25300;DHT22;13241;51.208;4.432;2023-06-22T14:31:45;19.70;99.90
25300;DHT22;13241;51.208;4.432;2023-06-22T14:34:13;19.80;99.90
25300;DHT22;13241;51.208;4.432;2023-06-22T14:36:40;19.80;99.90
25300;DHT22;13241;51.208;4.432;2023-06-22T14:39:06;19.80;99.90
25300;DHT22;13241;51.208;4.432;2023-06-22T14:41:33;19.70;99.90
25300;DHT22;13241;51.208;4.432;2023-06-22T14:44:00;19.90;99.90
25300;DHT22;13241;51.208;4.432;2023-06-22T14:46:27;20.00;99.90
25300;DHT22;13241;51.208;4.432;2023-06-22T14:48:55;20.00;99.90
25300;DHT22;13241;51.208;4.432;2023-06-22T14:51:21;20.00;99.90
25300;DHT22;13241;51.208;4.432;2023-06-22T14:53:48;20.00;99.90
25300;DHT22;13241;51.208;4.432;2023-06-22T14:56:15;20.00;99.90
25300;DHT22;13241;51.208;4.432;2023-06-22T14:58:43;20.00;99.90
25300;DHT22;13241;51.208;4.432;2023-06-22T15:01:15;20.00;99.90
25300;DHT22;13241;51.208;4.432;2023-06-22T15:03:43;20.00;99.90
25300;DHT22;13241;51.208;4.432;2023-06-22T15:06:10;19.90;99.90
25300;DHT22;13241;51.208;4.432;2023-06-22T15:08:40;19.80;99.90
25300;DHT22;13241;51.208;4.432;2023-06-22T15:11:08;19.90;99.90
25300;DHT22;13241;51.208;4.432;2023-06-22T15:13:38;19.90;99.90
25300;DHT22;13241;51.208;4.432;2023-06-22T15:16:05;20.10;99.90
25300;DHT22;13241;51.208;4.432;2023-06-22T15:18:32;20.00;99.90
25300;DHT22;13241;51.208;4.432;2023-06-22T15:21:03;20.00;99.90
25300;DHT22;13241;51.208;4.432;2023-06-22T15:23:31;20.00;99.90
25300;DHT22;13241;51.208;4.432;2023-06-22T15:26:00;20.00;99.90
25300;DHT22;13241;51.208;4.432;2023-06-22T15:28:28;20.10;99.90
25300;DHT22;13241;51.208;4.432;2023-06-22T15:30:55;20.10;99.90
25300;DHT22;13241;51.208;4.432;2023-06-22T15:33:24;20.20;99.90
25300;DHT22;13241;51.208;4.432;2023-06-22T15:35:51;20.10;99.90
25300;DHT22;13241;51.208;4.432;2023-06-22T15:38:19;20.10;99.90
25300;DHT22;13241;51.208;4.432;2023-06-22T15:40:46;20.10;99.90
25300;DHT22;13241;51.208;4.432;2023-06-22T15:43:13;20.20;99.90
25300;DHT22;13241;51.208;4.432;2023-06-22T15:45:41;20.20;99.90
25300;DHT22;13241;51.208;4.432;2023-06-22T15:48:10;20.20;99.90